createdAt,value
2019-05-13T00:01:09.696Z,15.70
2019-05-13T00:05:15.564Z,14.60
2019-05-13T00:09:21.270Z,13.40
2019-05-13T00:13:26.945Z,12.80
2019-05-13T00:17:33.905Z,11.90
2019-05-13T00:21:39.661Z,12.80
2019-05-13T00:25:45.380Z,14.30
2019-05-13T00:29:53.374Z,14.40
2019-05-13T00:33:58.614Z,14.50
2019-05-13T00:38:04.315Z,14.80
2019-05-13T00:42:09.989Z,15.30
2019-05-13T00:46:15.678Z,15.70
2019-05-13T00:50:21.407Z,15.10
2019-05-13T00:54:27.228Z,13.60
2019-05-13T00:58:33.503Z,12.90
2019-05-13T01:02:39.390Z,12.70
2019-05-13T01:06:45.154Z,12.80
2019-05-13T01:10:50.893Z,13.60
2019-05-13T01:14:56.702Z,14.70
2019-05-13T01:19:04.182Z,15.40
2019-05-13T01:23:10.047Z,15.60
2019-05-13T01:27:15.685Z,15.20
2019-05-13T01:31:23.303Z,15.20
2019-05-13T01:35:29.051Z,15.10
2019-05-13T01:39:35.146Z,15.40
2019-05-13T01:43:40.893Z,15.70
2019-05-13T01:47:46.569Z,15.80
2019-05-13T01:51:54.189Z,15.80
2019-05-13T01:55:59.730Z,16.00
2019-05-13T02:00:08.831Z,16.20
2019-05-13T02:04:14.486Z,16.40
2019-05-13T02:08:20.172Z,16.40
2019-05-13T02:12:25.854Z,16.40
2019-05-13T02:16:33.867Z,16.20
2019-05-13T02:20:38.953Z,15.90
2019-05-13T02:24:44.878Z,15.30
2019-05-13T02:28:50.587Z,15.60
2019-05-13T02:32:56.326Z,15.50
2019-05-13T02:37:03.204Z,15.30
2019-05-13T02:41:09.457Z,15.60
2019-05-13T02:45:15.371Z,15.70
2019-05-13T02:49:23.060Z,15.70
2019-05-13T02:53:28.493Z,14.90
2019-05-13T02:57:34.259Z,14.50
2019-05-13T03:01:43.015Z,14.80
2019-05-13T03:05:47.518Z,14.20
2019-05-13T03:09:53.222Z,13.90
2019-05-13T03:13:58.928Z,13.30
2019-05-13T03:18:05.588Z,13.50
2019-05-13T03:22:13.408Z,14.10
2019-05-13T03:26:18.649Z,14.10
2019-05-13T03:30:26.149Z,13.90
2019-05-13T03:34:35.823Z,12.80
2019-05-13T03:38:59.761Z,11.60
2019-05-13T03:42:53.478Z,11.20
2019-05-13T03:47:03.670Z,10.80
2019-05-13T03:51:12.889Z,11.20
2019-05-13T03:55:17.654Z,11.40
2019-05-13T03:59:23.404Z,11.80
2019-05-13T04:03:29.323Z,12.00
2019-05-13T04:07:35.059Z,12.00
2019-05-13T04:11:42.349Z,12.20
2019-05-13T04:15:49.309Z,12.40
2019-05-13T04:19:55.166Z,12.40
2019-05-13T04:24:03.907Z,12.20
2019-05-13T04:28:08.476Z,12.30
2019-05-13T04:32:14.328Z,12.20
2019-05-13T04:36:23.410Z,12.30
2019-05-13T04:40:28.965Z,12.30
2019-05-13T04:44:34.968Z,12.30
2019-05-13T04:48:44.300Z,12.20
2019-05-13T04:52:48.174Z,12.20
2019-05-13T04:56:53.993Z,12.30
2019-05-13T05:01:19.535Z,12.30
2019-05-13T05:05:44.955Z,12.30
2019-05-13T05:10:37.780Z,12.40
2019-05-13T05:15:04.218Z,12.40
2019-05-13T05:19:32.087Z,12.20
2019-05-13T05:24:05.217Z,12.40
2019-05-13T05:28:21.827Z,12.60
2019-05-13T05:32:54.763Z,12.70
2019-05-13T05:37:31.267Z,12.90
2019-05-13T05:41:38.663Z,12.90
2019-05-13T05:45:44.546Z,13.10
2019-05-13T05:49:53.891Z,13.30
2019-05-13T05:54:03.615Z,13.40
2019-05-13T05:58:12.513Z,13.40
2019-05-13T06:02:22.893Z,13.70
2019-05-13T06:06:32.730Z,14.00
2019-05-13T06:10:49.074Z,14.00
2019-05-13T06:14:45.747Z,14.10
2019-05-13T06:18:52.329Z,14.20
2019-05-13T06:22:58.143Z,14.60
2019-05-13T06:27:03.968Z,14.40
2019-05-13T06:31:12.258Z,14.50
2019-05-13T06:35:17.089Z,14.70
2019-05-13T06:39:22.840Z,14.70
2019-05-13T06:43:31.468Z,14.90
2019-05-13T06:47:36.926Z,14.80
2019-05-13T06:51:42.600Z,14.90
2019-05-13T06:55:48.508Z,15.10
2019-05-13T06:59:54.693Z,15.30
2019-05-13T07:04:02.360Z,15.40
2019-05-13T07:08:08.215Z,15.80
2019-05-13T07:12:13.931Z,16.10
2019-05-13T07:16:19.608Z,16.30
2019-05-13T07:20:25.347Z,16.50
2019-05-13T07:24:32.233Z,16.90
2019-05-13T07:28:38.326Z,17.10
2019-05-13T07:32:44.038Z,17.20
2019-05-13T07:36:51.305Z,17.60
2019-05-13T07:41:04.480Z,17.80
2019-05-13T07:45:12.344Z,17.80
2019-05-13T07:49:18.161Z,18.20
2019-05-13T07:53:23.963Z,18.40
2019-05-13T07:57:31.927Z,18.60
2019-05-13T08:01:37.021Z,18.90
2019-05-13T08:05:42.797Z,19.20
2019-05-13T08:09:51.791Z,19.40
2019-05-13T08:13:56.833Z,19.70
2019-05-13T08:18:02.525Z,20.20
2019-05-13T08:22:08.287Z,20.30
2019-05-13T08:26:13.986Z,20.60
2019-05-13T08:30:22.546Z,20.80
2019-05-13T08:34:27.204Z,20.90
2019-05-13T08:38:32.946Z,21.10
2019-05-13T08:42:41.462Z,21.40
2019-05-13T08:46:46.681Z,21.50
2019-05-13T08:50:52.909Z,21.70
2019-05-13T08:55:01.327Z,21.90
2019-05-13T08:59:07.507Z,22.20
2019-05-13T09:03:13.259Z,22.10
2019-05-13T09:07:21.843Z,22.20
2019-05-13T09:11:26.488Z,22.70
2019-05-13T09:15:32.275Z,22.90
2019-05-13T09:19:38.257Z,23.40
2019-05-13T09:23:43.953Z,23.60
2019-05-13T09:27:51.345Z,23.80
2019-05-13T09:31:57.115Z,24.10
2019-05-13T09:36:02.883Z,24.30
2019-05-13T09:40:08.767Z,24.50
2019-05-13T09:44:14.462Z,24.80
2019-05-13T09:48:22.428Z,24.90
2019-05-13T09:52:27.639Z,25.20
2019-05-13T09:56:33.418Z,25.80
2019-05-13T10:00:41.869Z,26.10
2019-05-13T10:04:46.484Z,26.30
2019-05-13T10:08:52.800Z,26.30
2019-05-13T10:13:09.332Z,26.00
2019-05-13T10:17:07.097Z,26.00
2019-05-13T10:21:12.857Z,27.10
2019-05-13T10:25:22.388Z,26.40
2019-05-13T10:29:27.868Z,26.00
2019-05-13T10:33:33.877Z,25.90
2019-05-13T10:37:41.824Z,26.30
2019-05-13T10:41:47.107Z,27.60
2019-05-13T10:45:52.811Z,28.70
2019-05-13T10:49:58.771Z,27.20
2019-05-13T10:54:05.010Z,26.90
2019-05-13T10:58:12.274Z,28.10
2019-05-13T11:02:18.154Z,28.40
2019-05-13T11:06:23.969Z,26.70
2019-05-13T11:10:33.211Z,24.80
2019-05-13T11:14:38.879Z,26.70
2019-05-13T11:18:46.279Z,28.00
2019-05-13T11:22:52.257Z,29.10
2019-05-13T11:26:57.928Z,28.70
2019-05-13T11:31:03.805Z,28.30
2019-05-13T11:35:12.736Z,28.50
2019-05-13T11:39:17.202Z,29.00
2019-05-13T11:43:27.904Z,29.50
2019-05-13T11:47:32.212Z,30.00
2019-05-13T11:51:38.044Z,27.60
2019-05-13T11:55:43.981Z,25.80
2019-05-13T11:59:52.446Z,25.50
2019-05-13T12:03:57.117Z,27.30
2019-05-13T12:08:02.828Z,28.20
2019-05-13T12:12:08.534Z,28.80
2019-05-13T12:16:14.243Z,28.90
2019-05-13T12:20:19.950Z,28.00
2019-05-13T12:24:26.783Z,28.10
2019-05-13T12:28:32.509Z,25.80
2019-05-13T12:32:38.183Z,27.10
2019-05-13T12:36:43.926Z,28.70
2019-05-13T12:40:52.530Z,29.60
2019-05-13T12:45:08.971Z,27.70
2019-05-13T12:49:04.655Z,28.20
2019-05-13T12:53:12.817Z,28.60
2019-05-13T12:57:17.801Z,29.10
2019-05-13T13:01:24.146Z,28.80
2019-05-13T13:05:34.332Z,28.10
2019-05-13T13:09:37.211Z,29.00
2019-05-13T13:13:58.170Z,28.10
2019-05-13T13:17:53.961Z,27.80
2019-05-13T13:22:03.244Z,28.30
2019-05-13T13:26:13.978Z,28.70
2019-05-13T13:30:14.288Z,29.10
2019-05-13T13:34:25.358Z,29.00
2019-05-13T13:38:27.371Z,28.80
2019-05-13T13:42:33.260Z,28.70
2019-05-13T13:46:44.299Z,28.00
2019-05-13T13:50:46.308Z,28.30
2019-05-13T13:55:02.128Z,28.20
2019-05-13T13:59:00.139Z,28.50
2019-05-13T14:03:07.115Z,28.50
2019-05-13T14:07:26.152Z,28.50
2019-05-13T14:11:23.206Z,28.40
2019-05-13T14:15:31.057Z,28.30
2019-05-13T14:19:35.925Z,28.10
2019-05-13T14:23:42.538Z,28.20
2019-05-13T14:27:48.397Z,28.10
2019-05-13T14:31:54.068Z,27.60
2019-05-13T14:36:01.558Z,27.50
2019-05-13T14:40:11.941Z,27.50
2019-05-13T14:44:16.490Z,27.40
2019-05-13T14:48:22.440Z,27.30
2019-05-13T14:52:28.172Z,26.90
2019-05-13T14:56:33.892Z,25.40
2019-05-13T15:00:42.185Z,24.90
2019-05-13T15:04:47.247Z,24.90
2019-05-13T15:08:53.118Z,25.40
2019-05-13T15:12:58.828Z,25.80
2019-05-13T15:17:07.562Z,25.90
2019-05-13T15:21:12.314Z,26.10
2019-05-13T15:25:18.188Z,26.10
2019-05-13T15:29:23.874Z,25.60
2019-05-13T15:33:32.272Z,24.70
2019-05-13T15:37:37.049Z,24.60
2019-05-13T15:41:42.739Z,24.60
2019-05-13T15:45:48.531Z,24.50
2019-05-13T15:49:54.215Z,24.40
2019-05-13T15:54:02.427Z,23.80
2019-05-13T15:58:07.466Z,23.60
2019-05-13T16:02:13.186Z,23.30
2019-05-13T16:06:20.577Z,23.00
2019-05-13T16:10:27.255Z,23.00
2019-05-13T16:14:32.929Z,22.80
2019-05-13T16:18:38.677Z,22.50
2019-05-13T16:22:44.386Z,22.40
2019-05-13T16:26:52.121Z,22.30
2019-05-13T16:30:57.723Z,22.30
2019-05-13T16:35:03.477Z,22.30
2019-05-13T16:39:09.171Z,22.20
2019-05-13T16:43:14.849Z,21.70
2019-05-13T16:47:21.239Z,21.40
2019-05-13T16:51:27.412Z,21.20
2019-05-13T16:55:33.120Z,21.00
2019-05-13T16:59:41.089Z,20.80
2019-05-13T17:03:46.923Z,20.60
2019-05-13T17:07:52.640Z,20.50
2019-05-13T17:12:01.378Z,20.30
2019-05-13T17:16:07.272Z,20.30
2019-05-13T17:20:13.464Z,20.30
2019-05-13T17:24:19.167Z,20.20
2019-05-13T17:28:24.858Z,20.10
2019-05-13T17:32:30.560Z,19.90
2019-05-13T17:36:36.249Z,19.80
2019-05-13T17:40:42.136Z,19.90
2019-05-13T17:44:47.830Z,19.70
2019-05-13T17:48:53.496Z,19.70
2019-05-13T17:52:59.204Z,19.60
2019-05-13T17:57:04.906Z,19.60
2019-05-13T18:01:12.098Z,19.60
2019-05-13T18:09:27.806Z,19.50
2019-05-13T18:13:33.655Z,19.50
2019-05-13T18:17:41.600Z,19.20
2019-05-13T18:21:46.912Z,19.20
2019-05-13T18:25:52.588Z,19.10
2019-05-13T18:29:59.263Z,19.10
2019-05-13T18:34:05.294Z,18.90
2019-05-13T18:38:11.964Z,18.90
2019-05-13T18:42:17.744Z,18.90
2019-05-13T18:46:24.077Z,18.70
2019-05-13T18:50:31.341Z,18.60
2019-05-13T18:54:37.301Z,18.60
2019-05-13T18:58:42.956Z,18.40
2019-05-13T19:02:48.656Z,18.40
2019-05-13T19:06:54.445Z,18.30
2019-05-13T19:11:01.176Z,18.30
2019-05-13T19:15:08.422Z,18.20
2019-05-13T19:19:16.987Z,18.20
2019-05-13T19:23:22.846Z,18.10
2019-05-13T19:27:28.575Z,18.10
2019-05-13T19:31:35.266Z,18.00
2019-05-13T19:35:42.611Z,17.90
2019-05-13T19:39:48.414Z,17.90
2019-05-13T19:43:54.159Z,17.80
2019-05-13T19:48:01.232Z,17.70
2019-05-13T19:52:07.229Z,17.70
2019-05-13T19:56:12.921Z,17.60
2019-05-13T20:00:21.203Z,17.50
2019-05-13T20:04:26.887Z,17.40
2019-05-13T20:08:32.611Z,17.30
2019-05-13T20:12:38.418Z,17.20
2019-05-13T20:16:44.288Z,17.20
2019-05-13T20:20:51.891Z,17.20
2019-05-13T20:24:57.661Z,17.10
2019-05-13T20:29:04.035Z,17.10
2019-05-13T20:33:11.776Z,17.00
2019-05-13T20:37:17.101Z,16.90
2019-05-13T20:41:22.800Z,16.90
2019-05-13T20:45:28.545Z,16.90
2019-05-13T20:49:35.165Z,16.80
2019-05-13T20:53:41.316Z,16.80
2019-05-13T20:57:47.018Z,16.70
2019-05-13T21:01:52.802Z,16.60
2019-05-13T21:05:58.455Z,16.60
2019-05-13T21:10:04.426Z,16.40
2019-05-13T21:14:10.113Z,16.40
2019-05-13T21:18:15.787Z,16.40
2019-05-13T21:22:21.558Z,16.30
2019-05-13T21:26:27.242Z,16.20
2019-05-13T21:30:32.942Z,16.10
2019-05-13T21:34:38.786Z,16.10
2019-05-13T21:38:44.502Z,16.10
2019-05-13T21:42:52.439Z,16.10
2019-05-13T21:46:57.601Z,16.00
2019-05-13T21:51:03.322Z,15.90
2019-05-13T21:55:11.211Z,15.70
2019-05-13T21:59:16.662Z,15.60
2019-05-13T22:03:22.347Z,15.40
2019-05-13T22:07:28.042Z,15.50
2019-05-13T22:11:35.210Z,15.20
2019-05-13T22:15:41.655Z,15.20
2019-05-13T22:19:47.414Z,15.20
2019-05-13T22:23:53.157Z,15.30
2019-05-13T22:28:01.087Z,15.10
2019-05-13T22:32:06.256Z,14.80
2019-05-13T22:36:11.991Z,14.70
2019-05-13T22:40:18.322Z,14.90
2019-05-13T22:44:24.019Z,15.10
2019-05-13T22:48:31.700Z,15.10
2019-05-13T22:52:37.250Z,15.20
2019-05-13T22:56:42.916Z,15.10
2019-05-13T23:00:48.621Z,15.10
2019-05-13T23:04:55.256Z,14.80
2019-05-13T23:09:01.747Z,14.70
2019-05-13T23:13:08.401Z,14.50
2019-05-13T23:17:14.084Z,14.50
2019-05-13T23:21:19.752Z,13.90
2019-05-13T23:25:25.454Z,14.00
2019-05-13T23:29:31.885Z,13.90
2019-05-13T23:33:37.712Z,13.90
2019-05-13T23:37:43.955Z,13.90
2019-05-13T23:41:51.973Z,14.00
2019-05-13T23:45:57.070Z,13.90
2019-05-13T23:50:02.835Z,13.80
2019-05-13T23:54:08.517Z,13.70
2019-05-13T23:58:14.246Z,13.40
